sensor_id;sensor_type;location;lat;lon;timestamp;pressure;altitude;pressure_sealevel;temperature;humidity
31225;BME280;17847;31.524;74.366;2023-06-14T00:01:02;97414.63;;;27.92;76.80
31225;BME280;17847;31.524;74.366;2023-06-14T00:03:35;97418.47;;;27.91;77.38
31225;BME280;17847;31.524;74.366;2023-06-14T00:06:04;97419.59;;;27.90;77.84
31225;BME280;17847;31.524;74.366;2023-06-14T00:08:34;97426.66;;;27.91;77.55
31225;BME280;17847;31.524;74.366;2023-06-14T00:11:03;97435.63;;;27.92;77.53
31225;BME280;17847;31.524;74.366;2023-06-14T00:13:33;97435.41;;;27.97;77.72
31225;BME280;17847;31.524;74.366;2023-06-14T00:16:02;97431.09;;;27.96;78.28
31225;BME280;17847;31.524;74.366;2023-06-14T00:18:32;97427.78;;;27.90;77.88
31225;BME280;17847;31.524;74.366;2023-06-14T00:21:01;97433.34;;;27.94;77.34
31225;BME280;17847;31.524;74.366;2023-06-14T00:23:33;97433.81;;;27.96;77.36
31225;BME280;17847;31.524;74.366;2023-06-14T00:26:02;97434.94;;;27.95;77.52
31225;BME280;17847;31.524;74.366;2023-06-14T00:28:32;97434.59;;;27.96;77.25
31225;BME280;17847;31.524;74.366;2023-06-14T00:31:01;97424.84;;;27.95;77.78
31225;BME280;17847;31.524;74.366;2023-06-14T00:33:30;97426.56;;;28.00;78.08
31225;BME280;17847;31.524;74.366;2023-06-14T00:35:59;97426.56;;;28.00;77.60
31225;BME280;17847;31.524;74.366;2023-06-14T00:38:29;97423.94;;;28.03;76.99
31225;BME280;17847;31.524;74.366;2023-06-14T00:40:58;97425.53;;;28.04;76.10
31225;BME280;17847;31.524;74.366;2023-06-14T00:43:27;97425.34;;;28.09;75.95
31225;BME280;17847;31.524;74.366;2023-06-14T00:45:57;97429.34;;;28.12;74.76
31225;BME280;17847;31.524;74.366;2023-06-14T00:48:27;97438.88;;;28.18;73.33
31225;BME280;17847;31.524;74.366;2023-06-14T00:50:58;97433.22;;;28.23;74.47
31225;BME280;17847;31.524;74.366;2023-06-14T00:53:32;97443.44;;;28.26;73.62
31225;BME280;17847;31.524;74.366;2023-06-14T00:56:04;97452.84;;;28.29;73.15
31225;BME280;17847;31.524;74.366;2023-06-14T00:58:33;97458.88;;;28.34;72.69
31225;BME280;17847;31.524;74.366;2023-06-14T01:01:03;97464.91;;;28.40;71.83
31225;BME280;17847;31.524;74.366;2023-06-14T01:03:34;97475.59;;;28.45;73.00
31225;BME280;17847;31.524;74.366;2023-06-14T01:06:31;97481.59;;;28.50;71.80
31225;BME280;17847;31.524;74.366;2023-06-14T01:12:01;97516.47;;;28.69;71.63
31225;BME280;17847;31.524;74.366;2023-06-14T01:14:36;97520.69;;;28.67;74.05
31225;BME280;17847;31.524;74.366;2023-06-14T01:17:08;97532.22;;;28.51;75.50
31225;BME280;17847;31.524;74.366;2023-06-14T01:19:48;97549.84;;;28.54;75.33
31225;BME280;17847;31.524;74.366;2023-06-14T01:22:17;97543.03;;;28.60;75.21
31225;BME280;17847;31.524;74.366;2023-06-14T01:24:46;97532.13;;;28.60;74.03
31225;BME280;17847;31.524;74.366;2023-06-14T01:27:16;97537.75;;;28.88;73.75
31225;BME280;17847;31.524;74.366;2023-06-14T01:29:47;97531.41;;;28.96;72.73
31225;BME280;17847;31.524;74.366;2023-06-14T01:32:18;97530.59;;;28.95;72.09
31225;BME280;17847;31.524;74.366;2023-06-14T01:34:48;97527.53;;;29.09;71.73
31225;BME280;17847;31.524;74.366;2023-06-14T01:37:19;97539.22;;;29.22;71.72
31225;BME280;17847;31.524;74.366;2023-06-14T01:39:50;97530.84;;;29.15;70.60
31225;BME280;17847;31.524;74.366;2023-06-14T01:42:20;97529.81;;;29.19;70.20
31225;BME280;17847;31.524;74.366;2023-06-14T01:44:52;97537.31;;;29.34;69.79
31225;BME280;17847;31.524;74.366;2023-06-14T01:47:23;97542.66;;;29.43;69.24
31225;BME280;17847;31.524;74.366;2023-06-14T01:49:53;97551.38;;;29.61;69.38
31225;BME280;17847;31.524;74.366;2023-06-14T01:52:23;97536.84;;;29.44;68.49
31225;BME280;17847;31.524;74.366;2023-06-14T01:54:52;97541.03;;;29.54;68.63
31225;BME280;17847;31.524;74.366;2023-06-14T01:57:23;97546.69;;;29.73;67.16
31225;BME280;17847;31.524;74.366;2023-06-14T01:59:55;97551.06;;;30.02;66.60
31225;BME280;17847;31.524;74.366;2023-06-14T02:02:25;97558.84;;;30.16;66.07
31225;BME280;17847;31.524;74.366;2023-06-14T02:04:55;97553.44;;;30.75;64.98
31225;BME280;17847;31.524;74.366;2023-06-14T02:07:26;97549.38;;;31.16;63.17
31225;BME280;17847;31.524;74.366;2023-06-14T02:09:55;97543.97;;;31.51;61.19
31225;BME280;17847;31.524;74.366;2023-06-14T02:12:25;97539.31;;;31.36;60.50
31225;BME280;17847;31.524;74.366;2023-06-14T02:14:56;97540.44;;;31.35;61.20
31225;BME280;17847;31.524;74.366;2023-06-14T02:17:28;97547.78;;;31.81;61.27
31225;BME280;17847;31.524;74.366;2023-06-14T02:19:58;97542.38;;;31.85;60.04
31225;BME280;17847;31.524;74.366;2023-06-14T02:22:27;97545.97;;;31.89;58.56
31225;BME280;17847;31.524;74.366;2023-06-14T02:24:58;97551.13;;;32.09;57.61
31225;BME280;17847;31.524;74.366;2023-06-14T02:27:29;97557.97;;;32.19;57.88
31225;BME280;17847;31.524;74.366;2023-06-14T02:29:59;97556.00;;;32.39;57.69
31225;BME280;17847;31.524;74.366;2023-06-14T02:32:32;97553.56;;;32.76;57.40
31225;BME280;17847;31.524;74.366;2023-06-14T02:35:05;97553.19;;;32.35;57.45
31225;BME280;17847;31.524;74.366;2023-06-14T02:37:37;97544.97;;;32.77;57.04
31225;BME280;17847;31.524;74.366;2023-06-14T02:40:07;97543.56;;;32.87;55.71
31225;BME280;17847;31.524;74.366;2023-06-14T02:42:37;97541.16;;;33.08;56.21
31225;BME280;17847;31.524;74.366;2023-06-14T02:45:07;97539.88;;;33.25;54.91
31225;BME280;17847;31.524;74.366;2023-06-14T02:47:38;97545.63;;;32.71;56.97
31225;BME280;17847;31.524;74.366;2023-06-14T02:50:09;97538.84;;;32.23;58.36
31225;BME280;17847;31.524;74.366;2023-06-14T02:52:39;97537.91;;;32.15;57.69
31225;BME280;17847;31.524;74.366;2023-06-14T02:55:10;97539.03;;;32.52;57.60
31225;BME280;17847;31.524;74.366;2023-06-14T02:57:40;97548.06;;;32.76;55.67
31225;BME280;17847;31.524;74.366;2023-06-14T03:00:10;97556.69;;;32.74;55.75
31225;BME280;17847;31.524;74.366;2023-06-14T03:02:44;97560.63;;;33.00;56.50
31225;BME280;17847;31.524;74.366;2023-06-14T03:05:14;97566.72;;;32.89;55.27
31225;BME280;17847;31.524;74.366;2023-06-14T03:07:45;97584.19;;;33.23;56.15
31225;BME280;17847;31.524;74.366;2023-06-14T03:10:17;97578.97;;;33.41;54.11
31225;BME280;17847;31.524;74.366;2023-06-14T03:12:48;97598.34;;;33.52;54.35
31225;BME280;17847;31.524;74.366;2023-06-14T03:15:20;97582.91;;;33.44;54.51
31225;BME280;17847;31.524;74.366;2023-06-14T03:17:52;97558.97;;;33.67;53.50
31225;BME280;17847;31.524;74.366;2023-06-14T03:20:22;97567.59;;;33.42;53.61
31225;BME280;17847;31.524;74.366;2023-06-14T03:22:53;97577.31;;;33.89;54.52
31225;BME280;17847;31.524;74.366;2023-06-14T03:25:23;97587.47;;;33.85;52.63
31225;BME280;17847;31.524;74.366;2023-06-14T03:27:52;97581.59;;;33.87;52.84
31225;BME280;17847;31.524;74.366;2023-06-14T03:30:22;97577.56;;;34.07;52.85
31225;BME280;17847;31.524;74.366;2023-06-14T03:32:53;97586.78;;;34.21;52.99
31225;BME280;17847;31.524;74.366;2023-06-14T03:35:29;97590.53;;;34.10;51.81
31225;BME280;17847;31.524;74.366;2023-06-14T03:37:58;97596.59;;;34.93;51.26
31225;BME280;17847;31.524;74.366;2023-06-14T03:40:27;97591.56;;;35.02;50.68
31225;BME280;17847;31.524;74.366;2023-06-14T03:43:01;97592.16;;;35.18;49.83
31225;BME280;17847;31.524;74.366;2023-06-14T03:45:31;97573.59;;;35.63;49.34
31225;BME280;17847;31.524;74.366;2023-06-14T03:48:01;97579.34;;;35.43;48.05
31225;BME280;17847;31.524;74.366;2023-06-14T03:50:32;97590.09;;;36.28;48.13
31225;BME280;17847;31.524;74.366;2023-06-14T03:53:02;97591.63;;;35.49;47.15
31225;BME280;17847;31.524;74.366;2023-06-14T03:55:32;97598.16;;;35.31;47.32
31225;BME280;17847;31.524;74.366;2023-06-14T03:58:05;97597.41;;;35.92;48.40
31225;BME280;17847;31.524;74.366;2023-06-14T04:00:36;97603.16;;;36.45;47.20
31225;BME280;17847;31.524;74.366;2023-06-14T04:03:06;97612.25;;;35.73;47.08
31225;BME280;17847;31.524;74.366;2023-06-14T04:05:37;97601.78;;;36.07;47.42
31225;BME280;17847;31.524;74.366;2023-06-14T04:08:10;97613.28;;;35.10;47.96
31225;BME280;17847;31.524;74.366;2023-06-14T04:10:39;97607.63;;;35.88;48.41
31225;BME280;17847;31.524;74.366;2023-06-14T04:13:08;97604.88;;;36.85;47.56
31225;BME280;17847;31.524;74.366;2023-06-14T04:15:42;97609.16;;;36.65;47.24
31225;BME280;17847;31.524;74.366;2023-06-14T04:18:16;97608.50;;;36.10;46.52
31225;BME280;17847;31.524;74.366;2023-06-14T04:20:51;97608.56;;;36.17;48.40
31225;BME280;17847;31.524;74.366;2023-06-14T04:23:23;97610.72;;;36.66;46.69
31225;BME280;17847;31.524;74.366;2023-06-14T04:25:52;97613.94;;;36.92;46.14
31225;BME280;17847;31.524;74.366;2023-06-14T04:28:22;97603.34;;;37.23;46.13
31225;BME280;17847;31.524;74.366;2023-06-14T04:30:57;97607.75;;;36.13;45.63
31225;BME280;17847;31.524;74.366;2023-06-14T04:33:32;97606.38;;;36.65;47.25
31225;BME280;17847;31.524;74.366;2023-06-14T04:36:01;97608.03;;;37.05;46.15
31225;BME280;17847;31.524;74.366;2023-06-14T04:38:32;97600.09;;;36.78;45.99
31225;BME280;17847;31.524;74.366;2023-06-14T04:41:04;97597.78;;;37.02;47.20
31225;BME280;17847;31.524;74.366;2023-06-14T04:43:33;97594.09;;;36.48;45.75
31225;BME280;17847;31.524;74.366;2023-06-14T04:46:07;97601.28;;;36.60;47.64
31225;BME280;17847;31.524;74.366;2023-06-14T04:48:40;97607.03;;;36.30;45.90
31225;BME280;17847;31.524;74.366;2023-06-14T04:51:11;97603.28;;;36.87;48.54
31225;BME280;17847;31.524;74.366;2023-06-14T04:53:42;97595.41;;;37.00;45.61
31225;BME280;17847;31.524;74.366;2023-06-14T04:56:12;97593.06;;;37.06;47.42
31225;BME280;17847;31.524;74.366;2023-06-14T04:58:42;97593.84;;;37.42;45.47
31225;BME280;17847;31.524;74.366;2023-06-14T05:01:12;97595.84;;;37.38;47.24
31225;BME280;17847;31.524;74.366;2023-06-14T05:03:41;97593.84;;;37.27;45.05
31225;BME280;17847;31.524;74.366;2023-06-14T05:06:15;97595.00;;;37.76;45.33
31225;BME280;17847;31.524;74.366;2023-06-14T05:08:47;97582.81;;;37.49;46.50
31225;BME280;17847;31.524;74.366;2023-06-14T05:11:17;97578.09;;;37.17;45.43
31225;BME280;17847;31.524;74.366;2023-06-14T05:13:47;97576.06;;;36.93;45.63
31225;BME280;17847;31.524;74.366;2023-06-14T05:16:17;97585.91;;;36.87;45.30
31225;BME280;17847;31.524;74.366;2023-06-14T05:18:48;97579.66;;;37.11;47.71
31225;BME280;17847;31.524;74.366;2023-06-14T05:21:17;97577.66;;;36.73;48.45
31225;BME280;17847;31.524;74.366;2023-06-14T05:23:47;97574.78;;;36.48;48.54
31225;BME280;17847;31.524;74.366;2023-06-14T05:26:18;97565.25;;;36.21;51.56
31225;BME280;17847;31.524;74.366;2023-06-14T05:28:48;97564.88;;;36.26;50.76
31225;BME280;17847;31.524;74.366;2023-06-14T05:31:18;97569.50;;;36.08;52.37
31225;BME280;17847;31.524;74.366;2023-06-14T05:33:48;97559.72;;;36.17;49.44
31225;BME280;17847;31.524;74.366;2023-06-14T05:36:18;97562.38;;;35.99;50.05
31225;BME280;17847;31.524;74.366;2023-06-14T05:38:47;97555.78;;;36.15;50.13
31225;BME280;17847;31.524;74.366;2023-06-14T05:41:17;97555.66;;;35.93;49.82
31225;BME280;17847;31.524;74.366;2023-06-14T05:43:49;97551.28;;;35.85;53.38
31225;BME280;17847;31.524;74.366;2023-06-14T05:46:19;97552.50;;;35.91;51.39
31225;BME280;17847;31.524;74.366;2023-06-14T05:48:52;97543.00;;;35.82;49.02
31225;BME280;17847;31.524;74.366;2023-06-14T05:51:22;97550.50;;;35.85;49.79
31225;BME280;17847;31.524;74.366;2023-06-14T05:53:53;97546.47;;;35.72;51.17
31225;BME280;17847;31.524;74.366;2023-06-14T05:56:23;97541.41;;;35.81;50.46
31225;BME280;17847;31.524;74.366;2023-06-14T05:58:52;97546.16;;;35.80;49.31
31225;BME280;17847;31.524;74.366;2023-06-14T06:01:22;97532.56;;;36.23;46.96
31225;BME280;17847;31.524;74.366;2023-06-14T06:03:51;97549.25;;;36.72;47.97
31225;BME280;17847;31.524;74.366;2023-06-14T06:06:20;97545.59;;;36.40;50.13
31225;BME280;17847;31.524;74.366;2023-06-14T06:08:50;97547.75;;;35.85;51.63
31225;BME280;17847;31.524;74.366;2023-06-14T06:11:19;97543.13;;;36.10;50.86
31225;BME280;17847;31.524;74.366;2023-06-14T06:13:48;97535.88;;;35.70;51.35
31225;BME280;17847;31.524;74.366;2023-06-14T06:16:18;97536.53;;;35.49;52.43
31225;BME280;17847;31.524;74.366;2023-06-14T06:18:47;97540.88;;;35.57;52.73
31225;BME280;17847;31.524;74.366;2023-06-14T06:21:17;97528.53;;;35.34;53.22
31225;BME280;17847;31.524;74.366;2023-06-14T06:23:46;97536.53;;;35.56;52.87
31225;BME280;17847;31.524;74.366;2023-06-14T06:26:15;97529.50;;;35.63;52.24
31225;BME280;17847;31.524;74.366;2023-06-14T06:28:45;97528.06;;;35.90;51.27
31225;BME280;17847;31.524;74.366;2023-06-14T06:31:14;97532.22;;;36.45;48.55
31225;BME280;17847;31.524;74.366;2023-06-14T06:33:54;97532.69;;;36.69;47.25
31225;BME280;17847;31.524;74.366;2023-06-14T06:36:24;97536.66;;;37.00;46.58
31225;BME280;17847;31.524;74.366;2023-06-14T06:38:53;97533.91;;;37.10;47.90
31225;BME280;17847;31.524;74.366;2023-06-14T06:41:22;97531.94;;;37.11;46.60
31225;BME280;17847;31.524;74.366;2023-06-14T06:43:52;97541.00;;;37.25;49.21
31225;BME280;17847;31.524;74.366;2023-06-14T06:46:28;97537.81;;;36.81;48.24
31225;BME280;17847;31.524;74.366;2023-06-14T06:48:58;97533.47;;;36.83;49.94
31225;BME280;17847;31.524;74.366;2023-06-14T06:51:28;97533.47;;;36.98;49.95
31225;BME280;17847;31.524;74.366;2023-06-14T06:53:58;97531.50;;;36.59;49.64
31225;BME280;17847;31.524;74.366;2023-06-14T06:56:27;97531.50;;;36.80;49.45
31225;BME280;17847;31.524;74.366;2023-06-14T06:58:56;97524.41;;;36.83;49.17
31225;BME280;17847;31.524;74.366;2023-06-14T07:01:26;97522.84;;;36.89;48.02
31225;BME280;17847;31.524;74.366;2023-06-14T07:03:57;97520.47;;;36.98;49.31
31225;BME280;17847;31.524;74.366;2023-06-14T07:06:27;97531.53;;;37.16;45.51
31225;BME280;17847;31.524;74.366;2023-06-14T07:08:56;97520.09;;;37.07;48.16
31225;BME280;17847;31.524;74.366;2023-06-14T07:11:30;97523.25;;;37.16;47.91
31225;BME280;17847;31.524;74.366;2023-06-14T07:14:00;97509.03;;;37.10;49.49
31225;BME280;17847;31.524;74.366;2023-06-14T07:16:29;97508.25;;;37.03;47.88
31225;BME280;17847;31.524;74.366;2023-06-14T07:18:58;97514.94;;;36.66;48.56
31225;BME280;17847;31.524;74.366;2023-06-14T07:21:29;97505.44;;;36.57;49.83
31225;BME280;17847;31.524;74.366;2023-06-14T07:23:59;97498.00;;;36.82;49.11
31225;BME280;17847;31.524;74.366;2023-06-14T07:26:29;97503.91;;;36.98;47.94
31225;BME280;17847;31.524;74.366;2023-06-14T07:28:59;97496.84;;;37.08;48.91
31225;BME280;17847;31.524;74.366;2023-06-14T07:31:29;97490.09;;;37.05;48.73
31225;BME280;17847;31.524;74.366;2023-06-14T07:36:47;97494.44;;;37.20;48.26
31225;BME280;17847;31.524;74.366;2023-06-14T07:39:17;97487.31;;;37.30;47.78
31225;BME280;17847;31.524;74.366;2023-06-14T07:41:46;97482.56;;;37.38;46.55
31225;BME280;17847;31.524;74.366;2023-06-14T07:44:17;97479.00;;;37.44;47.43
31225;BME280;17847;31.524;74.366;2023-06-14T07:46:47;97489.72;;;37.21;48.23
31225;BME280;17847;31.524;74.366;2023-06-14T07:49:18;97483.75;;;37.33;49.06
31225;BME280;17847;31.524;74.366;2023-06-14T07:51:48;97480.59;;;37.27;48.54
31225;BME280;17847;31.524;74.366;2023-06-14T07:54:19;97481.78;;;37.05;50.85
31225;BME280;17847;31.524;74.366;2023-06-14T07:56:53;97472.34;;;36.88;50.61
31225;BME280;17847;31.524;74.366;2023-06-14T07:59:23;97465.28;;;36.80;51.57
31225;BME280;17847;31.524;74.366;2023-06-14T08:01:52;97473.94;;;36.93;50.40
31225;BME280;17847;31.524;74.366;2023-06-14T08:04:22;97468.03;;;37.09;49.29
31225;BME280;17847;31.524;74.366;2023-06-14T08:06:52;97456.56;;;37.03;49.67
31225;BME280;17847;31.524;74.366;2023-06-14T08:09:22;97454.22;;;37.09;49.14
31225;BME280;17847;31.524;74.366;2023-06-14T08:11:52;97457.34;;;37.00;49.74
31225;BME280;17847;31.524;74.366;2023-06-14T08:14:21;97453.41;;;36.87;50.18
31225;BME280;17847;31.524;74.366;2023-06-14T08:16:51;97452.63;;;37.01;48.97
31225;BME280;17847;31.524;74.366;2023-06-14T08:19:21;97442.41;;;36.80;50.58
31225;BME280;17847;31.524;74.366;2023-06-14T08:21:51;97441.63;;;36.76;50.06
31225;BME280;17847;31.524;74.366;2023-06-14T08:24:23;97439.25;;;36.78;50.46
31225;BME280;17847;31.524;74.366;2023-06-14T08:26:57;97442.38;;;37.01;48.16
31225;BME280;17847;31.524;74.366;2023-06-14T08:29:30;97434.06;;;37.01;48.67
31225;BME280;17847;31.524;74.366;2023-06-14T08:32:01;97436.09;;;36.76;50.36
31225;BME280;17847;31.524;74.366;2023-06-14T08:34:31;97440.03;;;36.71;50.49
31225;BME280;17847;31.524;74.366;2023-06-14T08:37:00;97427.44;;;36.77;51.27
31225;BME280;17847;31.524;74.366;2023-06-14T08:39:30;97425.06;;;36.76;49.30
31225;BME280;17847;31.524;74.366;2023-06-14T08:42:02;97425.00;;;36.30;52.05
31225;BME280;17847;31.524;74.366;2023-06-14T08:44:32;97419.13;;;36.28;52.00
31225;BME280;17847;31.524;74.366;2023-06-14T08:47:02;97419.50;;;36.44;50.66
31225;BME280;17847;31.524;74.366;2023-06-14T08:49:36;97415.16;;;36.57;51.69
31225;BME280;17847;31.524;74.366;2023-06-14T08:52:08;97418.34;;;36.63;51.47
31225;BME280;17847;31.524;74.366;2023-06-14T08:54:41;97410.06;;;36.56;52.03
31225;BME280;17847;31.524;74.366;2023-06-14T08:57:12;97404.53;;;36.52;52.42
31225;BME280;17847;31.524;74.366;2023-06-14T08:59:47;97411.63;;;36.50;52.80
31225;BME280;17847;31.524;74.366;2023-06-14T09:02:23;97408.50;;;36.62;52.17
31225;BME280;17847;31.524;74.366;2023-06-14T09:04:54;97398.66;;;36.64;50.86
31225;BME280;17847;31.524;74.366;2023-06-14T09:07:28;97399.03;;;36.63;51.45
31225;BME280;17847;31.524;74.366;2023-06-14T09:10:18;97395.06;;;36.96;49.43
31225;BME280;17847;31.524;74.366;2023-06-14T09:12:51;97394.63;;;37.22;48.24
31225;BME280;17847;31.524;74.366;2023-06-14T09:15:20;97392.22;;;37.31;47.03
31225;BME280;17847;31.524;74.366;2023-06-14T09:17:50;97392.69;;;37.08;46.26
31225;BME280;17847;31.524;74.366;2023-06-14T09:20:20;97391.88;;;37.04;46.09
31225;BME280;17847;31.524;74.366;2023-06-14T09:22:50;97379.34;;;36.68;45.59
31225;BME280;17847;31.524;74.366;2023-06-14T09:25:22;97383.63;;;36.47;46.72
31225;BME280;17847;31.524;74.366;2023-06-14T09:27:59;97383.59;;;35.98;44.89
31225;BME280;17847;31.524;74.366;2023-06-14T09:30:31;97390.09;;;35.40;47.76
31225;BME280;17847;31.524;74.366;2023-06-14T09:33:00;97377.69;;;35.06;47.54
31225;BME280;17847;31.524;74.366;2023-06-14T09:35:32;97367.94;;;35.15;50.82
31225;BME280;17847;31.524;74.366;2023-06-14T09:38:01;97369.53;;;35.20;52.10
31225;BME280;17847;31.524;74.366;2023-06-14T09:40:34;97363.31;;;35.34;47.83
31225;BME280;17847;31.524;74.366;2023-06-14T09:43:11;97363.19;;;35.12;48.04
31225;BME280;17847;31.524;74.366;2023-06-14T09:45:40;97360.34;;;34.98;49.58
31225;BME280;17847;31.524;74.366;2023-06-14T09:48:14;97356.72;;;34.84;51.31
31225;BME280;17847;31.524;74.366;2023-06-14T09:50:47;97345.72;;;34.84;52.29
31225;BME280;17847;31.524;74.366;2023-06-14T09:53:21;97348.81;;;34.71;48.85
31225;BME280;17847;31.524;74.366;2023-06-14T09:55:55;97347.41;;;34.48;49.74
31225;BME280;17847;31.524;74.366;2023-06-14T09:58:26;97329.19;;;34.77;50.40
31225;BME280;17847;31.524;74.366;2023-06-14T10:00:57;97337.03;;;34.75;49.96
31225;BME280;17847;31.524;74.366;2023-06-14T10:03:28;97344.09;;;34.72;50.76
31225;BME280;17847;31.524;74.366;2023-06-14T10:06:23;97335.31;;;34.56;49.75
31225;BME280;17847;31.524;74.366;2023-06-14T10:08:57;97336.53;;;34.62;50.59
31225;BME280;17847;31.524;74.366;2023-06-14T10:11:29;97332.22;;;34.64;50.84
31225;BME280;17847;31.524;74.366;2023-06-14T10:13:59;97336.94;;;34.60;50.47
31225;BME280;17847;31.524;74.366;2023-06-14T10:16:34;97333.53;;;34.30;51.11
31225;BME280;17847;31.524;74.366;2023-06-14T10:19:29;97329.66;;;34.35;50.86
31225;BME280;17847;31.524;74.366;2023-06-14T10:24:41;97318.53;;;34.71;54.13
31225;BME280;17847;31.524;74.366;2023-06-14T10:27:16;97334.22;;;35.43;51.36
31225;BME280;17847;31.524;74.366;2023-06-14T10:32:22;97329.84;;;35.25;45.20
31225;BME280;17847;31.524;74.366;2023-06-14T10:37:28;97326.50;;;34.87;51.16
31225;BME280;17847;31.524;74.366;2023-06-14T10:39:58;97321.94;;;35.16;51.93
31225;BME280;17847;31.524;74.366;2023-06-14T10:42:32;97318.50;;;35.51;50.91
31225;BME280;17847;31.524;74.366;2023-06-14T10:45:02;97318.22;;;35.84;49.38
31225;BME280;17847;31.524;74.366;2023-06-14T10:47:33;97315.47;;;36.02;48.62
31225;BME280;17847;31.524;74.366;2023-06-14T10:50:08;97314.31;;;36.07;49.44
31225;BME280;17847;31.524;74.366;2023-06-14T10:52:41;97305.22;;;36.10;49.04
31225;BME280;17847;31.524;74.366;2023-06-14T10:55:17;97312.31;;;36.00;48.55
31225;BME280;17847;31.524;74.366;2023-06-14T10:57:53;97306.41;;;36.05;48.48
31225;BME280;17847;31.524;74.366;2023-06-14T11:00:28;97304.06;;;36.14;48.68
31225;BME280;17847;31.524;74.366;2023-06-14T11:05:41;97283.22;;;36.20;49.46
31225;BME280;17847;31.524;74.366;2023-06-14T11:11:06;97284.75;;;36.21;48.26
31225;BME280;17847;31.524;74.366;2023-06-14T11:13:41;97271.38;;;36.20;49.16
31225;BME280;17847;31.524;74.366;2023-06-14T11:16:16;97262.31;;;36.23;49.42
31225;BME280;17847;31.524;74.366;2023-06-14T11:18:46;97270.59;;;36.26;50.11
31225;BME280;17847;31.524;74.366;2023-06-14T11:21:18;97272.53;;;36.26;52.13
31225;BME280;17847;31.524;74.366;2023-06-14T11:23:51;97256.41;;;36.14;54.62
31225;BME280;17847;31.524;74.366;2023-06-14T11:26:29;97255.63;;;36.06;56.51
31225;BME280;17847;31.524;74.366;2023-06-14T11:29:00;97258.78;;;35.97;53.22
31225;BME280;17847;31.524;74.366;2023-06-14T11:31:31;97250.88;;;35.85;55.31
31225;BME280;17847;31.524;74.366;2023-06-14T11:34:00;97248.91;;;35.79;52.48
31225;BME280;17847;31.524;74.366;2023-06-14T11:36:33;97251.28;;;35.70;52.27
31225;BME280;17847;31.524;74.366;2023-06-14T11:39:04;97250.06;;;35.49;49.23
31225;BME280;17847;31.524;74.366;2023-06-14T11:41:45;97256.28;;;35.22;48.42
31225;BME280;17847;31.524;74.366;2023-06-14T11:44:15;97241.94;;;34.81;46.61
31225;BME280;17847;31.524;74.366;2023-06-14T11:46:44;97237.06;;;34.53;49.96
31225;BME280;17847;31.524;74.366;2023-06-14T11:49:14;97232.69;;;34.41;48.32
31225;BME280;17847;31.524;74.366;2023-06-14T11:51:43;97226.28;;;34.23;52.74
31225;BME280;17847;31.524;74.366;2023-06-14T11:54:13;97230.81;;;33.98;49.14
31225;BME280;17847;31.524;74.366;2023-06-14T11:56:43;97214.13;;;34.24;52.21
31225;BME280;17847;31.524;74.366;2023-06-14T11:59:13;97222.75;;;34.22;50.50
31225;BME280;17847;31.524;74.366;2023-06-14T12:01:43;97222.03;;;34.29;50.95
31225;BME280;17847;31.524;74.366;2023-06-14T12:04:14;97226.03;;;34.46;51.93
31225;BME280;17847;31.524;74.366;2023-06-14T12:06:43;97226.59;;;34.69;50.34
31225;BME280;17847;31.524;74.366;2023-06-14T12:09:13;97225.03;;;34.75;48.71
31225;BME280;17847;31.524;74.366;2023-06-14T12:11:46;97213.63;;;34.77;50.83
31225;BME280;17847;31.524;74.366;2023-06-14T12:14:16;97229.34;;;34.76;49.12
31225;BME280;17847;31.524;74.366;2023-06-14T12:16:45;97238.03;;;34.89;50.87
31225;BME280;17847;31.524;74.366;2023-06-14T12:19:17;97232.59;;;34.96;50.61
31225;BME280;17847;31.524;74.366;2023-06-14T12:21:47;97231.09;;;35.16;49.97
31225;BME280;17847;31.524;74.366;2023-06-14T12:24:18;97246.06;;;35.22;49.50
31225;BME280;17847;31.524;74.366;2023-06-14T12:26:48;97235.88;;;35.47;48.73
31225;BME280;17847;31.524;74.366;2023-06-14T12:29:19;97238.63;;;35.54;49.51
31225;BME280;17847;31.524;74.366;2023-06-14T12:31:48;97229.97;;;35.52;48.79
31225;BME280;17847;31.524;74.366;2023-06-14T12:34:18;97229.97;;;35.56;48.99
31225;BME280;17847;31.524;74.366;2023-06-14T12:36:47;97231.53;;;35.50;49.43
31225;BME280;17847;31.524;74.366;2023-06-14T12:39:17;97237.44;;;35.55;47.90
31225;BME280;17847;31.524;74.366;2023-06-14T12:41:47;97240.22;;;35.59;49.46
31225;BME280;17847;31.524;74.366;2023-06-14T12:44:17;97240.63;;;35.61;48.87
31225;BME280;17847;31.524;74.366;2023-06-14T12:46:47;97254.41;;;35.68;48.70
31225;BME280;17847;31.524;74.366;2023-06-14T12:49:17;97260.34;;;35.70;48.25
31225;BME280;17847;31.524;74.366;2023-06-14T12:51:47;97266.63;;;35.74;47.76
31225;BME280;17847;31.524;74.366;2023-06-14T12:54:17;97271.75;;;35.79;47.65
31225;BME280;17847;31.524;74.366;2023-06-14T12:57:06;97282.38;;;35.81;48.00
31225;BME280;17847;31.524;74.366;2023-06-14T12:59:36;97276.06;;;35.73;46.85
31225;BME280;17847;31.524;74.366;2023-06-14T13:02:19;97280.78;;;35.73;47.68
31225;BME280;17847;31.524;74.366;2023-06-14T13:04:53;97283.94;;;35.78;47.00
31225;BME280;17847;31.524;74.366;2023-06-14T13:07:22;97283.94;;;35.64;46.77
31225;BME280;17847;31.524;74.366;2023-06-14T13:09:52;97288.63;;;35.60;47.38
31225;BME280;17847;31.524;74.366;2023-06-14T13:12:21;97290.59;;;35.59;47.56
31225;BME280;17847;31.524;74.366;2023-06-14T13:14:51;97285.06;;;35.63;47.67
31225;BME280;17847;31.524;74.366;2023-06-14T13:20:45;97292.56;;;35.63;46.73
31225;BME280;17847;31.524;74.366;2023-06-14T13:23:17;97300.44;;;35.60;47.35
31225;BME280;17847;31.524;74.366;2023-06-14T13:25:52;97309.44;;;35.54;47.10
31225;BME280;17847;31.524;74.366;2023-06-14T13:28:23;97308.28;;;35.51;47.53
31225;BME280;17847;31.524;74.366;2023-06-14T13:30:59;97314.53;;;35.41;48.06
31225;BME280;17847;31.524;74.366;2023-06-14T13:33:29;97311.41;;;35.43;47.39